This is the latest recevied weather packets stored in our database for station/object SR5NLK-1. If no packets are shown the sender has not sent any weather packets the latest 10 day(s).
| Time | Temp. | Humidity | Pressure | Rain* | Wind** | Luminosity | Snow |
|---|---|---|---|---|---|---|---|
| 1787894271 | 12.22° C | 79% | 1059.5 hPa | 0 mm | - | - | - |
| 1787894183 | 20.56° C | 59% | 1080.8 hPa | 0 mm | - | - | - |
| 1787894139 | 20.56° C | 59% | 1080.8 hPa | 0 mm | - | - | - |
| 1787894097 | 20.56° C | 59% | 1080.8 hPa | 0 mm | - | - | - |
| 1787893798 | 20.56° C | 61% | 1041.2 hPa | 0 mm | - | - | - |
| 1787893732 | 12.22° C | 79% | 1103.3 hPa | 0 mm | - | - | - |
| 1787893675 | 20° C | 64% | 1065.8 hPa | 0 mm | - | - | - |
| 1787893632 | 20° C | 64% | 1065.8 hPa | 0 mm | - | - | - |
| 1787893497 | 20° C | 64% | 1065.8 hPa | 0 mm | - | - | - |
| 1787893442 | 18.89° C | 68% | 1059.5 hPa | 0 mm | - | - | - |
| 1787893284 | 18.89° C | 68% | 1059.5 hPa | 0 mm | - | - | - |
| 1787893197 | 18.89° C | 68% | 1059.5 hPa | 0 mm | - | - | - |
| 1787893076 | 18.33° C | 70% | 1049.9 hPa | 0 mm | - | - | - |
| 1787893045 | 11.67° C | 79% | 1075.3 hPa | 0 mm | - | - | - |
| 1787892968 | 17.78° C | 72% | 1047.6 hPa | 0 mm | - | - | - |
| 1787892897 | 17.78° C | 72% | 1047.6 hPa | 0 mm | - | - | - |
| 1787892855 | 16.67° C | 77% | 995.2 hPa | 0 mm | - | - | - |
| 1787892628 | 16.67° C | 77% | 995.2 hPa | 0 mm | - | - | - |
| 1787892597 | 16.67° C | 77% | 995.2 hPa | 0 mm | - | - | - |
| 1787892298 | 15.56° C | 82% | 1032.6 hPa | 0 mm | - | - | - |
| 1787892151 | 13.89° C | 82% | 1011.7 hPa | 0 mm | - | - | - |
| 1787891997 | 13.89° C | 82% | 1011.7 hPa | 0 mm | - | - | - |
| 1787891885 | 11.67° C | 79% | 1072.1 hPa | 0 mm | - | - | - |
| 1787891698 | 12.78° C | 81% | 1056.4 hPa | 0 mm | - | - | - |
| 1787891546 | 12.78° C | 80% | 1084.2 hPa | 0 mm | - | - | - |
* Rain latest hour (hover to see other rain measurements)
** Current wind speed in m/s (hover to see current wind gust speed)